Time;durP1;ratioP1;P1;durP2;ratioP2;P2;SDS_P1;SDS_P2;PMS_P1;PMS_P2;Temp;Humidity;BMP_temperature;BMP_pressure;BME280_temperature;BME280_humidity;BME280_pressure;Samples;Min_cycle;Max_cycle;Signal;HPM_P1;HPM_P2
2023/01/09 00:01:46;;;;;;;28.08;18.00;;;;;;;10.30;72.56;99898.59;5001351;28;20027;-70
2023/01/09 00:04:16;;;;;;;24.67;16.35;;;;;;;10.22;73.04;99892.28;5000146;28;20083;-70
2023/01/09 00:06:42;;;;;;;24.50;17.10;;;;;;;9.83;73.27;99832.47;4998734;28;20379;-70
2023/01/09 00:09:09;;;;;;;25.13;17.67;;;;;;;9.76;73.38;99817.97;5000017;28;20033;-70
2023/01/09 00:11:40;;;;;;;24.00;16.50;;;;;;;10.03;73.68;99874.31;4992894;28;20120;-70
2023/01/09 00:14:12;;;;;;;27.85;17.73;;;;;;;10.06;74.12;99881.25;4998414;28;20044;-70
2023/01/09 00:16:48;;;;;;;25.63;18.58;;;;;;;9.68;73.96;99825.88;4997733;28;20022;-70
2023/01/09 00:19:17;;;;;;;25.85;16.65;;;;;;;10.07;74.33;99886.50;5001640;28;20623;-70
2023/01/09 00:21:43;;;;;;;25.63;17.27;;;;;;;10.07;74.10;99897.22;4998117;28;20341;-70
2023/01/09 00:24:08;;;;;;;26.92;17.35;;;;;;;10.05;74.45;99906.34;5015880;28;20654;-70
2023/01/09 00:26:34;;;;;;;28.98;17.85;;;;;;;10.02;74.60;99907.47;5011371;28;20059;-69
2023/01/09 00:29:00;;;;;;;24.90;17.33;;;;;;;9.88;74.26;99885.63;5016403;28;20071;-70
2023/01/09 00:31:25;;;;;;;25.40;17.00;;;;;;;9.95;74.79;99902.81;5021260;28;20044;-70
2023/01/09 00:33:58;;;;;;;24.45;16.75;;;;;;;9.87;74.59;99889.28;5012390;28;20542;-70
2023/01/09 00:36:24;;;;;;;27.85;17.00;;;;;;;9.90;74.81;99905.09;4998842;28;20176;-70
2023/01/09 00:38:50;;;;;;;24.35;16.05;;;;;;;9.79;75.09;99895.34;5009548;28;21842;-69
2023/01/09 00:41:24;;;;;;;29.20;17.33;;;;;;;9.88;74.64;99907.03;5000298;28;20030;-69
2023/01/09 00:43:54;;;;;;;25.70;16.10;;;;;;;9.84;74.83;99898.47;5004376;28;20090;-70
2023/01/09 00:46:23;;;;;;;24.77;17.10;;;;;;;9.82;75.18;99894.22;5021681;28;20380;-69
2023/01/09 00:48:49;;;;;;;24.25;15.35;;;;;;;9.77;75.40;99891.13;5012066;28;20050;-70
2023/01/09 00:51:18;;;;;;;27.10;16.27;;;;;;;9.70;75.53;99882.78;5016250;28;20029;-70
2023/01/09 00:53:44;;;;;;;25.42;16.25;;;;;;;9.63;75.82;99878.13;5013187;28;20037;-70
2023/01/09 00:56:15;;;;;;;26.55;16.80;;;;;;;9.74;75.58;99889.53;5003101;28;20057;-70
2023/01/09 00:58:40;;;;;;;27.05;17.40;;;;;;;9.73;75.34;99893.22;5011059;28;20831;-70
2023/01/09 01:01:06;;;;;;;26.98;17.55;;;;;;;9.68;75.81;99894.63;5015482;28;20116;-70
2023/01/09 01:03:31;;;;;;;28.10;17.13;;;;;;;9.66;76.09;99892.09;5014309;28;20026;-69
2023/01/09 01:08:41;;;;;;;29.02;18.05;;;;;;;9.61;76.89;99888.16;5015260;28;20076;-70
2023/01/09 01:11:09;;;;;;;25.55;17.10;;;;;;;9.54;76.63;99876.31;4993462;28;20034;-70
2023/01/09 01:13:36;;;;;;;25.20;16.48;;;;;;;9.49;77.04;99865.16;5014523;28;20029;-70
2023/01/09 01:16:10;;;;;;;27.77;18.08;;;;;;;9.54;77.52;99879.81;5014930;28;20048;-70
2023/01/09 01:18:35;;;;;;;30.33;17.55;;;;;;;9.40;77.38;99856.13;5020898;28;20040;-70
2023/01/09 01:21:07;;;;;;;28.55;17.73;;;;;;;9.48;77.78;99866.16;5012203;28;20045;-70
2023/01/09 01:23:33;;;;;;;25.60;17.27;;;;;;;9.34;77.74;99845.97;5020437;28;20132;-70
2023/01/09 01:26:04;;;;;;;23.95;17.02;;;;;;;9.35;77.53;99834.28;5018881;28;20041;-69
2023/01/09 01:28:30;;;;;;;27.65;17.77;;;;;;;9.48;78.05;99858.13;4997401;28;20045;-70
2023/01/09 01:30:55;;;;;;;30.60;19.02;;;;;;;9.45;78.18;99853.91;5015450;28;20475;-70
2023/01/09 01:33:20;;;;;;;29.85;18.55;;;;;;;9.43;78.18;99853.19;5018275;28;20029;-69
2023/01/09 01:35:46;;;;;;;29.88;18.33;;;;;;;9.44;78.39;99849.50;5017842;28;20052;-69
2023/01/09 01:38:11;;;;;;;29.00;18.00;;;;;;;9.33;78.52;99828.25;5022473;28;20037;-70
2023/01/09 01:40:39;;;;;;;28.55;19.00;;;;;;;9.38;78.93;99834.00;5021473;28;20048;-70
2023/01/09 01:43:04;;;;;;;28.45;18.10;;;;;;;9.38;79.06;99836.69;5016775;28;20045;-69
2023/01/09 01:45:31;;;;;;;29.45;19.27;;;;;;;9.33;79.48;99830.91;5016271;28;20037;-69
2023/01/09 01:47:59;;;;;;;28.13;18.33;;;;;;;9.32;79.50;99834.56;5019883;28;20383;-69
2023/01/09 01:50:47;;;;;;;30.35;18.45;;;;;;;9.26;79.39;99819.91;5020846;28;20024;-70
2023/01/09 01:53:18;;;;;;;27.45;17.98;;;;;;;9.32;79.83;99831.06;5023205;28;20034;-70
2023/01/09 01:56:15;;;;;;;28.60;19.10;;;;;;;9.24;79.84;99821.88;4998681;28;20025;-70
2023/01/09 01:58:51;;;;;;;27.20;17.83;;;;;;;9.11;80.59;99797.22;4993261;28;20045;-70
2023/01/09 02:01:19;;;;;;;30.23;18.58;;;;;;;9.19;80.47;99805.38;5001538;28;20099;-70
2023/01/09 02:03:45;;;;;;;26.65;17.90;;;;;;;9.25;80.99;99806.66;5000753;28;20423;-70
2023/01/09 02:06:12;;;;;;;25.17;18.10;;;;;;;9.13;80.77;99778.38;5001243;28;20100;-70
2023/01/09 02:08:38;;;;;;;28.70;18.58;;;;;;;9.09;81.11;99784.94;5004759;28;20172;-70
2023/01/09 02:11:04;;;;;;;26.83;17.25;;;;;;;9.05;80.77;99771.03;4998492;28;20124;-70
2023/01/09 02:13:33;;;;;;;33.13;19.88;;;;;;;9.20;80.87;99804.41;5005448;28;20114;-70
2023/01/09 02:16:19;;;;;;;29.20;18.70;;;;;;;9.05;81.24;99778.19;5004456;28;20044;-70
2023/01/09 02:18:53;;;;;;;30.67;19.05;;;;;;;9.12;81.71;99790.03;5005624;28;20025;-70
2023/01/09 02:21:56;;;;;;;34.20;19.35;;;;;;;9.13;81.50;99792.56;4999850;28;20480;-70
2023/01/09 02:24:42;;;;;;;30.52;18.70;;;;;;;9.11;81.75;99772.28;4996874;28;20038;-70
2023/01/09 02:27:46;;;;;;;31.77;19.63;;;;;;;9.10;81.96;99775.97;4997428;28;20711;-70
2023/01/09 02:30:15;;;;;;;30.73;18.90;;;;;;;9.08;82.24;99773.44;5005016;28;20390;-69
2023/01/09 02:32:57;;;;;;;27.45;17.90;;;;;;;9.09;82.27;99784.94;5001784;28;20290;-69
2023/01/09 02:36:07;;;;;;;31.75;19.67;;;;;;;8.94;82.32;99762.28;5004408;28;20053;-70
2023/01/09 02:38:44;;;;;;;28.88;19.42;;;;;;;9.02;82.83;99783.81;4958749;28;20368;-69
2023/01/09 02:41:13;;;;;;;31.35;18.60;;;;;;;9.02;82.68;99789.16;4994075;28;20140;-69
2023/01/09 02:43:40;;;;;;;27.42;17.80;;;;;;;9.01;82.70;99792.84;4999648;28;20034;-69
2023/01/09 02:46:18;;;;;;;30.35;19.95;;;;;;;8.83;82.85;99751.69;4999106;28;20036;-70
2023/01/09 02:48:53;;;;;;;25.55;17.58;;;;;;;8.95;83.08;99769.31;5002835;28;20120;-70
2023/01/09 02:51:37;;;;;;;28.48;18.08;;;;;;;8.86;82.77;99752.28;5000083;28;20044;-69
2023/01/09 02:54:17;;;;;;;33.47;19.85;;;;;;;8.79;83.20;99744.94;5004977;28;20041;-69
2023/01/09 02:56:52;;;;;;;34.15;20.25;;;;;;;8.90;83.61;99758.19;5018304;28;20045;-69
2023/01/09 02:59:58;;;;;;;32.17;19.75;;;;;;;8.66;83.67;99721.13;5004993;28;20418;-70
2023/01/09 03:02:47;;;;;;;30.75;18.75;;;;;;;8.80;83.87;99750.13;4947560;28;20512;-70
2023/01/09 03:05:31;;;;;;;26.88;18.13;;;;;;;8.82;83.95;99750.00;4999078;28;20381;-70
2023/01/09 03:08:00;;;;;;;;;;;;;;;8.83;84.32;99760.56;4994385;28;20022;-70
2023/01/09 03:10:44;;;;;;;28.05;16.85;;;;;;;8.85;84.68;99752.41;5022380;28;19916;-70
2023/01/09 03:13:14;;;;;;;26.27;17.10;;;;;;;8.84;84.21;99754.22;4994535;28;20137;-70
2023/01/09 03:15:43;;;;;;;23.95;16.02;;;;;;;8.81;84.59;99748.31;5019042;28;20034;-70
2023/01/09 03:18:12;;;;;;;25.90;17.17;;;;;;;8.59;84.47;99713.78;5021235;28;20025;-69
2023/01/09 03:20:39;;;;;;;26.90;16.75;;;;;;;8.60;84.56;99708.31;5016624;28;20383;-69
2023/01/09 03:23:06;;;;;;;26.00;16.98;;;;;;;8.78;85.22;99737.91;5003407;28;20022;-69
2023/01/09 03:25:32;;;;;;;22.52;15.70;;;;;;;8.69;84.83;99728.03;5020738;28;20065;-69
2023/01/09 03:28:01;;;;;;;27.70;17.88;;;;;;;8.79;84.48;99732.41;5001536;28;20031;-69
2023/01/09 03:30:28;;;;;;;26.42;16.60;;;;;;;8.76;84.75;99738.03;5014259;28;20092;-69
2023/01/09 03:32:55;;;;;;;24.45;16.27;;;;;;;8.64;84.99;99719.59;5019421;28;20025;-70
2023/01/09 03:35:20;;;;;;;23.63;16.83;;;;;;;8.72;84.99;99735.78;5017736;28;20037;-70
2023/01/09 03:37:46;;;;;;;26.73;16.27;;;;;;;8.66;85.25;99728.28;5020273;28;20032;-70
2023/01/09 03:40:11;;;;;;;24.20;15.60;;;;;;;8.66;85.10;99725.63;5018912;28;20131;-70
2023/01/09 03:42:37;;;;;;;23.52;15.00;;;;;;;8.48;85.65;99700.56;5015431;28;20025;-70
2023/01/09 03:45:03;;;;;;;25.25;16.50;;;;;;;8.67;84.84;99719.28;5012086;28;20069;-70
2023/01/09 03:47:29;;;;;;;23.67;14.38;;;;;;;8.63;85.29;99713.38;5014498;28;20455;-69
2023/01/09 03:49:54;;;;;;;22.65;15.82;;;;;;;8.60;85.28;99710.97;5014849;28;20116;-70
2023/01/09 03:52:19;;;;;;;27.98;15.82;;;;;;;8.58;84.99;99714.78;5011285;28;20443;-70
2023/01/09 03:54:45;;;;;;;24.80;16.65;;;;;;;8.59;84.66;99706.63;5017501;28;20045;-69
2023/01/09 03:57:10;;;;;;;24.30;15.55;;;;;;;8.58;84.82;99715.59;5002236;28;20492;-69
2023/01/09 03:59:36;;;;;;;25.55;15.50;;;;;;;8.58;85.03;99712.94;5012899;28;20065;-70
2023/01/09 04:02:01;;;;;;;22.13;15.40;;;;;;;8.57;84.64;99707.72;4994762;28;20033;-70
2023/01/09 04:04:27;;;;;;;25.25;15.57;;;;;;;8.57;84.54;99705.91;5014669;28;20075;-69
2023/01/09 04:06:52;;;;;;;23.98;16.10;;;;;;;8.54;84.42;99708.00;5014427;28;20036;-69
2023/01/09 04:09:17;;;;;;;23.02;14.65;;;;;;;8.55;84.58;99710.53;5009101;28;20037;-70
2023/01/09 04:11:43;;;;;;;24.42;15.93;;;;;;;8.58;83.99;99706.75;5008617;28;20029;-70
2023/01/09 04:14:08;;;;;;;22.58;15.40;;;;;;;8.52;84.25;99693.94;5014552;28;20026;-70
2023/01/09 04:16:34;;;;;;;23.90;15.90;;;;;;;8.47;84.04;99690.81;5014192;28;20379;-70
2023/01/09 04:18:59;;;;;;;21.55;15.48;;;;;;;8.51;84.19;99692.22;5018507;28;20037;-69
2023/01/09 04:21:25;;;;;;;24.98;16.05;;;;;;;8.47;84.11;99693.50;5014625;28;20029;-69
2023/01/09 04:23:50;;;;;;;24.65;15.80;;;;;;;8.50;84.14;99690.56;5013284;28;20030;-70
2023/01/09 04:26:16;;;;;;;24.40;14.75;;;;;;;8.48;83.70;99692.53;5019135;28;20099;-70
2023/01/09 04:28:41;;;;;;;22.33;14.68;;;;;;;8.50;82.67;99694.09;5015405;28;20048;-70
2023/01/09 04:31:07;;;;;;;24.45;15.18;;;;;;;8.46;83.15;99692.66;5017678;28;20049;-69
2023/01/09 04:33:33;;;;;;;23.67;14.93;;;;;;;8.45;82.73;99682.13;5014465;28;20044;-70
2023/01/09 04:35:58;;;;;;;23.27;13.75;;;;;;;8.44;81.87;99680.41;5011768;28;20025;-70
2023/01/09 04:38:25;;;;;;;22.75;15.25;;;;;;;8.40;81.78;99669.16;4998443;28;20487;-70
2023/01/09 04:40:51;;;;;;;24.80;14.45;;;;;;;8.46;81.77;99684.66;5013680;28;20030;-69
2023/01/09 04:43:16;;;;;;;24.23;15.40;;;;;;;8.37;81.86;99673.94;5010152;28;20030;-70
2023/01/09 04:45:42;;;;;;;20.73;14.43;;;;;;;8.42;81.71;99687.72;5017581;28;20091;-70
2023/01/09 04:48:07;;;;;;;22.17;14.50;;;;;;;8.40;82.01;99677.19;5007093;28;20116;-70
2023/01/09 04:50:33;;;;;;;26.13;14.32;;;;;;;8.40;81.91;99679.00;5019072;28;20514;-70
2023/01/09 04:52:58;;;;;;;22.80;15.57;;;;;;;8.37;81.29;99668.56;5016782;28;20038;-70
2023/01/09 04:55:24;;;;;;;24.85;15.63;;;;;;;8.34;81.80;99679.53;5012391;28;20026;-70
2023/01/09 04:57:49;;;;;;;23.35;15.30;;;;;;;8.29;81.85;99666.59;5012269;28;20183;-70
2023/01/09 05:00:15;;;;;;;21.77;14.55;;;;;;;8.32;81.34;99666.31;5016170;28;20523;-69
2023/01/09 05:02:40;;;;;;;23.85;15.20;;;;;;;8.24;81.51;99652.81;4997498;28;20030;-70
2023/01/09 05:05:07;;;;;;;19.90;14.43;;;;;;;8.10;81.67;99637.09;5014067;28;20095;-69
2023/01/09 05:07:33;;;;;;;23.33;15.25;;;;;;;8.24;82.31;99655.47;5024410;28;20467;-69
2023/01/09 05:09:58;;;;;;;25.20;15.60;;;;;;;8.25;82.15;99665.19;5017008;28;20088;-70
2023/01/09 05:12:24;;;;;;;26.55;15.25;;;;;;;8.13;82.27;99636.00;5006891;28;20037;-70
2023/01/09 05:14:49;;;;;;;22.75;15.40;;;;;;;8.20;81.84;99645.16;5012228;28;20287;-69
2023/01/09 05:17:15;;;;;;;20.70;14.45;;;;;;;8.30;81.45;99662.09;5019019;28;20033;-69
2023/01/09 05:19:41;;;;;;;23.70;15.02;;;;;;;8.26;81.37;99666.84;5010267;28;20037;-70
2023/01/09 05:22:06;;;;;;;19.98;13.32;;;;;;;8.26;82.34;99682.06;5013697;28;20094;-69
2023/01/09 05:24:32;;;;;;;21.38;13.95;;;;;;;8.21;82.61;99689.59;5009715;28;20025;-69
2023/01/09 05:26:57;;;;;;;20.35;14.43;;;;;;;8.20;82.59;99671.88;5011050;28;20120;-69
2023/01/09 05:29:23;;;;;;;22.50;14.85;;;;;;;8.13;82.47;99678.75;5016413;28;20183;-69
2023/01/09 05:31:48;;;;;;;24.02;15.07;;;;;;;8.17;82.20;99672.16;5019602;28;20044;-70
2023/01/09 05:34:14;;;;;;;23.63;14.32;;;;;;;8.15;82.40;99676.75;5012862;28;20029;-70
2023/01/09 05:36:39;;;;;;;20.67;14.23;;;;;;;8.13;82.08;99673.41;5020087;28;20029;-70
2023/01/09 05:39:05;;;;;;;25.92;15.65;;;;;;;8.10;82.15;99674.50;5015729;28;20033;-70
2023/01/09 05:41:31;;;;;;;23.33;15.05;;;;;;;8.12;81.77;99674.34;5017893;28;20344;-70
2023/01/09 05:43:56;;;;;;;21.98;14.85;;;;;;;7.94;81.44;99650.16;5018062;28;20472;-70
2023/01/09 05:46:22;;;;;;;24.50;14.68;;;;;;;7.87;81.89;99648.97;5016284;28;20040;-70
2023/01/09 05:48:47;;;;;;;23.75;14.40;;;;;;;8.02;81.49;99669.00;5014923;28;20026;-70
2023/01/09 05:51:13;;;;;;;22.17;13.82;;;;;;;8.02;81.34;99676.16;5017118;28;20056;-70
2023/01/09 05:53:38;;;;;;;23.83;15.57;;;;;;;8.06;81.49;99670.41;5014909;28;20140;-69
2023/01/09 05:56:04;;;;;;;25.42;15.02;;;;;;;8.03;80.84;99664.50;5008623;28;20041;-70
2023/01/09 05:58:29;;;;;;;24.75;15.07;;;;;;;8.05;80.55;99668.72;5007781;28;20030;-70
2023/01/09 06:00:55;;;;;;;25.65;16.58;;;;;;;7.98;81.07;99656.91;5013990;28;20531;-70
2023/01/09 06:03:20;;;;;;;24.02;16.40;;;;;;;7.97;80.97;99657.84;5013917;28;20021;-70
2023/01/09 06:05:46;;;;;;;21.40;14.70;;;;;;;7.97;80.49;99654.38;5018407;28;20387;-70
2023/01/09 06:08:11;;;;;;;24.02;15.35;;;;;;;7.94;81.10;99657.31;5010427;28;20057;-70
2023/01/09 06:10:36;;;;;;;26.05;14.93;;;;;;;7.90;81.05;99659.38;5008944;28;20026;-69
2023/01/09 06:13:02;;;;;;;23.90;14.60;;;;;;;7.89;81.23;99654.19;5022509;28;20025;-69
2023/01/09 06:15:27;;;;;;;23.73;14.77;;;;;;;7.88;80.88;99647.16;5023939;28;20068;-68
2023/01/09 06:17:53;;;;;;;23.63;14.80;;;;;;;7.87;81.02;99640.97;5022089;28;20087;-68
2023/01/09 06:20:18;;;;;;;23.35;14.90;;;;;;;7.85;80.86;99647.41;5020708;28;20132;-69
2023/01/09 06:22:44;;;;;;;25.80;14.43;;;;;;;7.86;81.17;99628.59;5019844;28;20050;-70
2023/01/09 06:25:10;;;;;;;21.35;14.55;;;;;;;7.80;80.80;99634.47;5013169;28;20407;-70
2023/01/09 06:27:36;;;;;;;21.30;14.00;;;;;;;7.78;81.00;99644.47;5016653;28;20025;-70
2023/01/09 06:30:01;;;;;;;25.50;15.98;;;;;;;7.79;81.59;99639.94;4998525;28;20414;-70
2023/01/09 06:32:27;;;;;;;22.77;14.98;;;;;;;7.80;81.95;99649.66;5021458;28;20025;-70
2023/01/09 06:34:52;;;;;;;21.63;14.50;;;;;;;7.74;82.25;99650.19;5017592;28;20137;-70
2023/01/09 06:37:18;;;;;;;26.35;15.32;;;;;;;7.74;82.32;99637.66;5012713;28;20037;-70
2023/01/09 06:39:43;;;;;;;23.00;15.10;;;;;;;7.78;81.93;99651.59;5015455;28;20100;-70
2023/01/09 06:42:08;;;;;;;23.15;14.93;;;;;;;7.73;81.03;99632.47;5004623;28;20026;-70
2023/01/09 06:44:35;;;;;;;25.13;14.43;;;;;;;7.74;81.51;99634.19;5017901;28;20537;-70
2023/01/09 06:47:02;;;;;;;24.55;15.55;;;;;;;7.77;81.24;99640.06;5017910;28;20116;-70
2023/01/09 06:49:27;;;;;;;24.40;15.60;;;;;;;7.65;81.29;99619.81;5015708;28;20033;-70
2023/01/09 06:51:53;;;;;;;28.83;14.73;;;;;;;7.79;81.92;99650.63;5015352;28;20026;-70
2023/01/09 06:54:18;;;;;;;22.58;15.15;;;;;;;7.81;80.93;99638.84;5019376;28;20088;-70
2023/01/09 06:56:44;;;;;;;26.33;16.52;;;;;;;7.66;81.69;99618.81;5010985;28;20069;-70
2023/01/09 06:59:09;;;;;;;27.17;15.57;;;;;;;7.75;81.37;99647.38;5014045;28;20045;-70
2023/01/09 07:01:34;;;;;;;23.30;15.45;;;;;;;7.80;82.03;99647.00;5018777;28;20033;-70
2023/01/09 07:04:00;;;;;;;20.50;14.23;;;;;;;7.67;82.17;99631.19;5019678;28;20117;-70
2023/01/09 07:06:26;;;;;;;26.73;15.27;;;;;;;7.69;82.20;99636.38;5015665;28;20033;-70
2023/01/09 07:08:51;;;;;;;27.05;16.10;;;;;;;7.83;81.87;99654.75;5018184;28;20100;-70
2023/01/09 07:11:16;;;;;;;23.88;14.93;;;;;;;7.83;81.41;99658.22;5019104;28;21004;-70
2023/01/09 07:13:42;;;;;;;24.77;15.80;;;;;;;7.71;81.35;99648.63;5012651;28;20036;-70
2023/01/09 07:16:08;;;;;;;25.77;15.80;;;;;;;7.78;81.80;99644.47;5016898;28;20033;-70
2023/01/09 07:18:33;;;;;;;26.67;15.55;;;;;;;7.85;81.59;99658.09;4996185;28;20022;-70
2023/01/09 07:20:59;;;;;;;24.80;14.25;;;;;;;7.82;81.74;99651.22;5014648;28;20506;-70
2023/01/09 07:23:25;;;;;;;23.50;13.75;;;;;;;7.81;81.20;99643.34;5015325;28;20029;-69
2023/01/09 07:25:51;;;;;;;27.65;15.50;;;;;;;7.91;81.06;99662.91;5017104;28;20025;-70
2023/01/09 07:28:16;;;;;;;22.58;14.73;;;;;;;7.91;81.54;99671.78;5002031;28;20562;-70
2023/01/09 07:30:42;;;;;;;24.33;15.13;;;;;;;7.89;81.62;99675.53;5020467;28;20095;-69
2023/01/09 07:33:07;;;;;;;21.92;15.07;;;;;;;7.87;81.73;99674.84;5008464;28;20037;-70
2023/01/09 07:35:33;;;;;;;20.45;14.50;;;;;;;7.91;81.69;99686.94;5016534;28;20022;-70
2023/01/09 07:37:58;;;;;;;25.55;15.98;;;;;;;7.89;81.36;99671.06;5013411;28;20044;-69
2023/01/09 07:40:24;;;;;;;25.95;14.88;;;;;;;7.90;81.47;99664.72;5010686;28;20492;-69
2023/01/09 07:42:52;;;;;;;21.92;14.60;;;;;;;7.94;80.91;99660.84;5015545;28;20021;-70
2023/01/09 07:45:18;;;;;;;24.83;14.88;;;;;;;7.96;80.66;99664.19;5018029;28;20035;-69
2023/01/09 07:47:43;;;;;;;24.08;15.57;;;;;;;7.94;80.88;99665.31;5016703;28;20471;-69
2023/01/09 07:50:09;;;;;;;19.10;13.85;;;;;;;7.96;80.95;99666.88;5014448;28;20036;-70
2023/01/09 07:52:34;;;;;;;28.20;17.15;;;;;;;7.90;80.95;99642.53;5014455;28;20034;-69
2023/01/09 07:55:00;;;;;;;23.45;15.23;;;;;;;7.78;81.39;99614.25;5005440;28;20044;-69
2023/01/09 07:57:25;;;;;;;21.83;14.48;;;;;;;8.02;80.85;99644.09;4997748;28;20056;-69
2023/01/09 07:59:50;;;;;;;21.83;14.73;;;;;;;8.05;80.10;99646.50;5010225;28;20021;-70
2023/01/09 08:02:16;;;;;;;22.00;14.68;;;;;;;8.04;80.26;99644.84;5020043;28;20104;-69
2023/01/09 08:04:42;;;;;;;23.38;15.77;;;;;;;8.04;80.11;99636.81;5011038;28;20045;-69
2023/01/09 08:07:08;;;;;;;23.58;15.05;;;;;;;7.98;79.89;99616.00;5021558;28;20446;-70
2023/01/09 08:09:33;;;;;;;22.92;14.48;;;;;;;8.10;79.78;99650.47;5011277;28;20028;-70
2023/01/09 08:11:59;;;;;;;24.95;15.70;;;;;;;8.08;79.84;99640.91;5016254;28;20710;-69
2023/01/09 08:14:24;;;;;;;24.60;15.88;;;;;;;8.09;80.46;99635.44;5012266;28;20092;-69
2023/01/09 08:16:50;;;;;;;26.17;16.13;;;;;;;8.08;80.07;99631.06;5010769;28;20038;-70
2023/01/09 08:19:15;;;;;;;23.55;16.13;;;;;;;8.08;80.12;99628.41;5017729;28;20034;-69
2023/01/09 08:21:40;;;;;;;24.27;15.25;;;;;;;8.15;80.47;99642.03;5016910;28;20039;-69
2023/01/09 08:24:06;;;;;;;25.38;15.13;;;;;;;8.16;80.09;99657.94;5012095;28;20116;-69
2023/01/09 08:26:31;;;;;;;23.20;14.90;;;;;;;8.11;80.24;99633.47;5020321;28;20029;-70
2023/01/09 08:28:57;;;;;;;25.23;14.75;;;;;;;8.10;79.83;99633.63;4998601;28;20037;-69
2023/01/09 08:31:22;;;;;;;22.95;14.98;;;;;;;8.19;80.11;99640.81;5015490;28;20389;-69
2023/01/09 08:33:48;;;;;;;22.27;15.38;;;;;;;8.24;80.15;99644.78;4998863;28;20034;-70
2023/01/09 08:36:13;;;;;;;25.30;15.02;;;;;;;8.28;79.09;99654.22;5016269;28;20021;-70
2023/01/09 08:38:39;;;;;;;32.10;16.13;;;;;;;8.20;79.71;99642.50;5009924;28;20033;-69
2023/01/09 08:47:04;;;;;;;25.02;15.57;;;;;;;8.28;79.60;99669.38;5020914;28;20033;-69
2023/01/09 08:49:18;;;;;;;;;;;;;;;8.42;78.54;99648.47;5012978;28;20554;-70
2023/01/09 08:51:43;;;;;;;25.25;15.32;;;;;;;8.45;78.86;99650.06;5014064;28;19913;-70
2023/01/09 08:54:09;;;;;;;26.25;15.82;;;;;;;8.47;78.66;99662.28;5014447;28;20034;-69
2023/01/09 08:56:34;;;;;;;25.35;17.17;;;;;;;8.41;78.66;99646.81;5016115;28;20480;-69
2023/01/09 08:58:59;;;;;;;25.92;16.67;;;;;;;8.61;77.67;99647.69;5010370;28;20029;-70
2023/01/09 09:01:25;;;;;;;27.05;16.45;;;;;;;8.54;78.10;99635.84;5007117;28;20061;-69
2023/01/09 09:03:50;;;;;;;23.92;15.77;;;;;;;8.53;80.28;99634.16;5017503;28;20735;-69
2023/01/09 09:06:16;;;;;;;25.65;16.83;;;;;;;8.62;79.76;99647.56;5003341;28;20033;-70
2023/01/09 09:08:41;;;;;;;23.75;16.15;;;;;;;8.57;80.86;99640.91;5015504;28;20128;-69
2023/01/09 09:11:06;;;;;;;27.90;16.02;;;;;;;8.58;82.16;99647.97;5021363;28;20033;-70
2023/01/09 09:13:32;;;;;;;28.90;16.67;;;;;;;8.60;82.70;99635.28;4994698;28;20069;-69
2023/01/09 09:15:57;;;;;;;26.27;16.98;;;;;;;8.57;83.67;99622.19;5011240;28;20039;-69
2023/01/09 09:18:23;;;;;;;26.92;16.02;;;;;;;8.59;85.01;99622.91;5015098;28;20120;-70
2023/01/09 09:20:48;;;;;;;22.65;15.75;;;;;;;8.59;85.55;99617.56;5012323;28;20022;-71
2023/01/09 09:23:13;;;;;;;24.42;16.52;;;;;;;8.58;86.29;99606.03;4998436;28;20036;-70
2023/01/09 09:25:39;;;;;;;29.75;18.83;;;;;;;8.54;87.04;99596.59;5017252;28;20029;-70
2023/01/09 09:28:05;;;;;;;31.90;19.63;;;;;;;8.55;87.90;99594.78;5012820;28;20042;-70
2023/01/09 09:30:30;;;;;;;32.45;19.58;;;;;;;8.55;88.95;99584.09;5019040;28;20041;-70
2023/01/09 09:32:56;;;;;;;35.65;20.52;;;;;;;8.52;90.11;99573.69;5021650;28;20025;-70
2023/01/09 09:35:21;;;;;;;29.92;18.75;;;;;;;8.51;90.79;99564.81;5014408;28;20025;-69
2023/01/09 09:38:00;;;;;;;25.83;17.33;;;;;;;8.52;90.88;99553.13;5019264;28;20091;-69
2023/01/09 09:40:59;;;;;;;30.35;17.52;;;;;;;8.52;91.62;99522.91;5015308;28;20034;-70
2023/01/09 09:47:15;;;;;;;29.92;18.38;;;;;;;8.41;92.64;99531.06;5016769;28;20431;-70
2023/01/09 09:50:18;;;;;;;30.52;18.30;;;;;;;8.30;93.60;99532.06;4999985;28;20045;-69
2023/01/09 09:53:09;;;;;;;30.42;19.08;;;;;;;8.28;94.44;99542.03;4993698;28;20042;-69
2023/01/09 09:55:38;;;;;;;27.85;18.02;;;;;;;8.28;95.27;99551.84;5017756;28;20626;-69
2023/01/09 09:58:35;;;;;;;33.25;19.20;;;;;;;8.27;95.59;99555.53;5010301;28;20054;-69
2023/01/09 10:01:02;;;;;;;31.58;19.73;;;;;;;8.10;96.43;99534.81;5018168;28;20045;-69
2023/01/09 10:03:40;;;;;;;36.10;20.98;;;;;;;8.23;96.77;99559.47;5016936;28;20022;-69
2023/01/09 10:06:15;;;;;;;37.08;21.40;;;;;;;8.21;97.11;99554.22;5022068;28;20030;-70
2023/01/09 10:08:54;;;;;;;32.70;20.92;;;;;;;8.23;97.07;99546.09;5021140;28;20621;-70
2023/01/09 10:11:26;;;;;;;35.63;21.60;;;;;;;8.22;96.90;99533.75;5024777;28;20029;-69
2023/01/09 10:14:04;;;;;;;29.85;18.98;;;;;;;8.20;98.10;99527.66;5014601;28;20068;-70
2023/01/09 10:17:02;;;;;;;34.70;20.95;;;;;;;8.21;97.99;99524.00;5015580;28;20044;-69
2023/01/09 10:20:12;;;;;;;30.42;20.10;;;;;;;8.15;98.27;99508.50;5015031;28;20119;-70
2023/01/09 10:23:08;;;;;;;35.45;19.77;;;;;;;8.25;98.33;99518.25;5000700;28;20057;-69
2023/01/09 10:25:55;;;;;;;30.75;19.25;;;;;;;8.25;98.60;99523.59;5020232;28;20365;-70
2023/01/09 10:28:41;;;;;;;36.33;21.25;;;;;;;8.21;98.93;99518.66;5023817;28;20628;-70
2023/01/09 10:31:31;;;;;;;36.50;20.98;;;;;;;8.21;99.93;99522.16;5016610;28;20129;-70
2023/01/09 10:34:34;;;;;;;32.47;19.67;;;;;;;8.21;100.00;99510.63;5015272;28;20045;-70
2023/01/09 10:37:21;;;;;;;36.22;20.92;;;;;;;8.08;100.00;99488.69;5000371;28;20117;-69
2023/01/09 10:40:11;;;;;;;30.63;19.45;;;;;;;8.30;100.00;99502.69;4995709;28;20032;-70
2023/01/09 10:42:47;;;;;;;33.40;20.88;;;;;;;8.23;100.00;99493.53;5005465;28;20040;-70
2023/01/09 10:45:25;;;;;;;34.85;19.25;;;;;;;8.12;100.00;99476.75;5018530;28;20545;-70
2023/01/09 10:47:56;;;;;;;27.95;18.55;;;;;;;8.27;100.00;99494.94;5015031;28;20091;-70
2023/01/09 10:50:25;;;;;;;28.67;18.98;;;;;;;8.26;100.00;99497.75;5016423;28;22086;-70
2023/01/09 10:52:53;;;;;;;28.80;19.58;;;;;;;8.21;100.00;99487.44;5000810;28;20115;-70
2023/01/09 10:55:46;;;;;;;27.95;19.48;;;;;;;8.28;100.00;99495.75;5013777;28;21876;-70
2023/01/09 10:58:21;;;;;;;28.48;17.70;;;;;;;8.27;100.00;99478.06;5014578;28;20064;-70
2023/01/09 11:00:49;;;;;;;31.92;19.60;;;;;;;8.28;100.00;99477.06;5015089;28;20661;-70
2023/01/09 11:03:21;;;;;;;30.23;19.73;;;;;;;8.27;100.00;99475.38;5016419;28;20042;-69
2023/01/09 11:05:55;;;;;;;32.75;20.50;;;;;;;8.15;100.00;99449.75;5005221;28;20596;-70
2023/01/09 11:08:30;;;;;;;34.10;20.45;;;;;;;8.23;100.00;99455.28;5021375;28;20060;-69
2023/01/09 11:10:58;;;;;;;32.70;20.83;;;;;;;8.23;100.00;99447.28;5017371;28;20033;-70
2023/01/09 11:13:30;;;;;;;35.55;21.15;;;;;;;8.22;100.00;99445.59;5013479;28;20100;-69
2023/01/09 11:16:08;;;;;;;31.73;20.00;;;;;;;8.22;100.00;99438.41;5009449;28;20030;-69
2023/01/09 11:18:39;;;;;;;29.13;20.02;;;;;;;8.17;100.00;99432.63;4999937;28;20808;-69
2023/01/09 11:21:24;;;;;;;34.13;21.23;;;;;;;8.24;100.00;99440.94;5020297;28;20040;-70
2023/01/09 11:23:50;;;;;;;33.60;20.02;;;;;;;8.24;100.00;99438.28;5019918;28;20026;-70
2023/01/09 11:26:26;;;;;;;30.88;19.83;;;;;;;8.22;100.00;99427.72;5014342;28;20072;-70
2023/01/09 11:29:06;;;;;;;35.05;20.05;;;;;;;8.24;100.00;99424.91;5014823;28;20029;-69
2023/01/09 11:31:33;;;;;;;33.92;21.83;;;;;;;8.16;100.00;99419.41;5018231;28;20038;-69
2023/01/09 11:33:58;;;;;;;30.85;19.52;;;;;;;8.12;100.00;99400.16;5014283;28;20038;-69
2023/01/09 11:36:25;;;;;;;29.10;20.15;;;;;;;8.22;100.00;99418.91;5012115;28;20033;-69
2023/01/09 11:38:56;;;;;;;31.83;20.80;;;;;;;8.25;100.00;99413.25;5013765;28;20577;-69
2023/01/09 11:41:24;;;;;;;32.42;19.58;;;;;;;8.21;100.00;99395.78;5021237;28;20033;-69
2023/01/09 11:43:53;;;;;;;32.42;19.58;;;;;;;8.23;100.00;99393.84;5015312;28;20025;-69
2023/01/09 11:46:33;;;;;;;31.95;20.73;;;;;;;8.25;100.00;99403.41;5011622;28;20044;-70
2023/01/09 11:49:00;;;;;;;27.10;19.02;;;;;;;8.17;100.00;99394.38;5014028;28;20095;-70